ETNG

Geilenkirchen Airport

Germany
METAR ETNG 181408Z 08005KT 2200 BR FEW002 SCT022 BKN200 02/01 Q1020 TEMPO 0600 FG
Observed Flight Rules
Jan-18 @ 14:08 UTC (19 minutes ago) Instrument Flight Rules
Wind Visibility Clouds Conditions
80° at 5 knots 2,205 meters
  • Few at 200' AGL
  • Scattered at 2,200' AGL
  • Broken at 20,000' AGL
  • Mist
Temperatures Readings
Current 2°C / 36°F
Dewpoint 1°C / 34°F
Humidity 93%
Altimeter 30.12" Hg
Pressure 1019.92 hPa
Elevation 98
METAR ETNG 181408Z 08005KT 2200 BR FEW002 SCT022 BKN200 02/01 Q1020 TEMPO 0600 FG
Observed Flight Rules
Jan-18 @ 14:08 UTC
(19 minutes ago)
IFR
Wind Visibility
80° at 5 knots 2,205 meters
Clouds
  • Few at 200' AGL
  • Scattered at 2,200' AGL
  • Broken at 20,000' AGL
Conditions
  • Mist
Temperature Dewpoint
2°C / 36°F 1°C / 34°F
Humidity Altimeter Pressure
93% 30.12" Hg 1019.92 hPa